AXM6322 WMKK-WMKL
Flight info
| Callsign | AXM6322 |
|---|---|
| Flight time | 0h 45m |
| Altitude | 30000 |
| Route | ATIMU1C ATIMU Y506 VPG W525 KAPKO KAPKO1E |
| Aircraft | A20N/M-SDE2E3FGHIRWXY/LB1 |
Departure
| Time | 2026-04-25 12:29 |
|---|---|
| Airport | Kuala Lumpur International Airport (WMKK) |
Arrival
| Time | 2026-04-25 13:15 |
|---|---|
| Airport | Langkawi International Airport (WMKL) |
| Time | Latitude | Longitude | Altitude | Speed | Heading |
|---|---|---|---|---|---|
| 2026-04-25 12:10 | 2.74421 | 101.69043 | 37 ft | 0 kts | 325° |
| 2026-04-25 12:21 | 2.74411 | 101.69051 | 37 ft | 2 kts | 324° |
| 2026-04-25 12:21 | 2.74399 | 101.69059 | 38 ft | 2 kts | 325° |
| 2026-04-25 12:22 | 2.74386 | 101.69067 | 38 ft | 2 kts | 324° |
| 2026-04-25 12:22 | 2.74374 | 101.69076 | 38 ft | 2 kts | 325° |
| 2026-04-25 12:22 | 2.74362 | 101.69085 | 38 ft | 1 kts | 325° |
| 2026-04-25 12:22 | 2.74354 | 101.69091 | 38 ft | 2 kts | 307° |
| 2026-04-25 12:23 | 2.74349 | 101.69106 | 38 ft | 2 kts | 258° |
| 2026-04-25 12:23 | 2.74352 | 101.69114 | 39 ft | 1 kts | 231° |
| 2026-04-25 12:23 | 2.74356 | 101.69119 | 39 ft | 0 kts | 234° |
| 2026-04-25 12:25 | 2.74342 | 101.69095 | 38 ft | 7 kts | 241° |
| 2026-04-25 12:26 | 2.74307 | 101.69039 | 38 ft | 11 kts | 235° |
| 2026-04-25 12:26 | 2.74256 | 101.68964 | 37 ft | 14 kts | 236° |
| 2026-04-25 12:26 | 2.74192 | 101.68870 | 36 ft | 17 kts | 237° |
| 2026-04-25 12:26 | 2.74117 | 101.68758 | 35 ft | 20 kts | 237° |
| 2026-04-25 12:27 | 2.74032 | 101.68635 | 36 ft | 21 kts | 235° |
| 2026-04-25 12:27 | 2.73944 | 101.68507 | 36 ft | 23 kts | 236° |
| 2026-04-25 12:27 | 2.73854 | 101.68372 | 36 ft | 22 kts | 236° |
| 2026-04-25 12:27 | 2.73769 | 101.68243 | 38 ft | 21 kts | 236° |
| 2026-04-25 12:28 | 2.73686 | 101.68126 | 40 ft | 19 kts | 236° |
| 2026-04-25 12:28 | 2.73616 | 101.68020 | 42 ft | 12 kts | 236° |
| 2026-04-25 12:28 | 2.73568 | 101.67949 | 44 ft | 11 kts | 234° |
| 2026-04-25 12:28 | 2.73501 | 101.67963 | 44 ft | 12 kts | 146° |
| 2026-04-25 12:29 | 2.73337 | 101.68073 | 41 ft | 62 kts | 146° |
| 2026-04-25 12:29 | 2.72764 | 101.68459 | 34 ft | 131 kts | 146° |
| 2026-04-25 12:29 | 2.71877 | 101.69045 | 204 ft | 166 kts | 146° |
| 2026-04-25 12:29 | 2.70900 | 101.69688 | 795 ft | 170 kts | 144° |
| 2026-04-25 12:30 | 2.69898 | 101.70352 | 1380 ft | 177 kts | 144° |
| 2026-04-25 12:30 | 2.68818 | 101.71001 | 1850 ft | 190 kts | 156° |
| 2026-04-25 12:30 | 2.67430 | 101.71069 | 2259 ft | 212 kts | 197° |
| 2026-04-25 12:30 | 2.66128 | 101.70269 | 2605 ft | 235 kts | 216° |
| 2026-04-25 12:31 | 2.64761 | 101.69228 | 3057 ft | 255 kts | 217° |
| 2026-04-25 12:31 | 2.63308 | 101.68099 | 3559 ft | 274 kts | 220° |
| 2026-04-25 12:31 | 2.62173 | 101.66547 | 4203 ft | 285 kts | 251° |
| 2026-04-25 12:31 | 2.61947 | 101.64612 | 5030 ft | 285 kts | 280° |
| 2026-04-25 12:32 | 2.62607 | 101.62772 | 5854 ft | 285 kts | 300° |
| 2026-04-25 12:32 | 2.63581 | 101.61031 | 6648 ft | 288 kts | 304° |
| 2026-04-25 12:32 | 2.64740 | 101.59405 | 7424 ft | 291 kts | 311° |
| 2026-04-25 12:32 | 2.66060 | 101.57878 | 8199 ft | 294 kts | 314° |
| 2026-04-25 12:33 | 2.67438 | 101.56339 | 8977 ft | 298 kts | 314° |
| 2026-04-25 12:33 | 2.68816 | 101.54794 | 9707 ft | 302 kts | 314° |
| 2026-04-25 12:33 | 2.70220 | 101.53212 | 10375 ft | 309 kts | 313° |
| 2026-04-25 12:33 | 2.71693 | 101.51544 | 10756 ft | 326 kts | 313° |
| 2026-04-25 12:34 | 2.73231 | 101.49797 | 11052 ft | 344 kts | 313° |
| 2026-04-25 12:34 | 2.74833 | 101.47970 | 11452 ft | 357 kts | 313° |
| 2026-04-25 12:34 | 2.76471 | 101.46098 | 12086 ft | 362 kts | 313° |
| 2026-04-25 12:34 | 2.77581 | 101.44830 | 12528 ft | 364 kts | 312° |
| 2026-04-25 12:35 | 2.79836 | 101.42254 | 13385 ft | 369 kts | 312° |
| 2026-04-25 12:35 | 2.81521 | 101.40327 | 13988 ft | 373 kts | 313° |
| 2026-04-25 12:35 | 2.83227 | 101.38340 | 14595 ft | 378 kts | 310° |
| 2026-04-25 12:35 | 2.84816 | 101.36260 | 15191 ft | 381 kts | 307° |
| 2026-04-25 12:36 | 2.86295 | 101.34023 | 15766 ft | 386 kts | 303° |
| 2026-04-25 12:36 | 2.87696 | 101.31721 | 16342 ft | 389 kts | 303° |
| 2026-04-25 12:36 | 2.89102 | 101.29381 | 16892 ft | 393 kts | 303° |
| 2026-04-25 12:36 | 2.90520 | 101.27023 | 17433 ft | 396 kts | 303° |
| 2026-04-25 12:37 | 2.91950 | 101.24653 | 17965 ft | 399 kts | 303° |
| 2026-04-25 12:37 | 2.93386 | 101.22274 | 18486 ft | 402 kts | 303° |
| 2026-04-25 12:37 | 2.94832 | 101.19881 | 18981 ft | 405 kts | 303° |
| 2026-04-25 12:37 | 2.96288 | 101.17475 | 19465 ft | 408 kts | 303° |
| 2026-04-25 12:38 | 2.97771 | 101.15025 | 19971 ft | 410 kts | 303° |
| 2026-04-25 12:38 | 2.99370 | 101.12650 | 20434 ft | 411 kts | 311° |
| 2026-04-25 12:38 | 3.01374 | 101.10622 | 20900 ft | 410 kts | 322° |
| 2026-04-25 12:38 | 3.03722 | 101.09006 | 21357 ft | 410 kts | 332° |
| 2026-04-25 12:39 | 3.06218 | 101.07593 | 21797 ft | 412 kts | 333° |
| 2026-04-25 12:39 | 3.08743 | 101.06201 | 22200 ft | 415 kts | 333° |
| 2026-04-25 12:39 | 3.11288 | 101.04793 | 22608 ft | 419 kts | 333° |
| 2026-04-25 12:39 | 3.13861 | 101.03357 | 22993 ft | 423 kts | 332° |
| 2026-04-25 12:40 | 3.16437 | 101.01910 | 23387 ft | 426 kts | 332° |
| 2026-04-25 12:40 | 3.19043 | 101.00444 | 23798 ft | 429 kts | 332° |
| 2026-04-25 12:40 | 3.21720 | 100.99116 | 24201 ft | 429 kts | 340° |
| 2026-04-25 12:40 | 3.24586 | 100.98280 | 24605 ft | 428 kts | 351° |
| 2026-04-25 12:41 | 3.27548 | 100.97965 | 24998 ft | 428 kts | 0° |
| 2026-04-25 12:41 | 3.30511 | 100.97948 | 25383 ft | 430 kts | 1° |
| 2026-04-25 12:41 | 3.33550 | 100.97974 | 25744 ft | 432 kts | 2° |
| 2026-04-25 12:41 | 3.36560 | 100.98002 | 26087 ft | 435 kts | 2° |
| 2026-04-25 12:42 | 3.39597 | 100.98025 | 26414 ft | 438 kts | 1° |
| 2026-04-25 12:42 | 3.41654 | 100.98036 | 26621 ft | 439 kts | 1° |
| 2026-04-25 12:42 | 3.45747 | 100.98054 | 27045 ft | 443 kts | 1° |
| 2026-04-25 12:42 | 3.48857 | 100.98065 | 27354 ft | 445 kts | 1° |
| 2026-04-25 12:43 | 3.51958 | 100.98075 | 27656 ft | 447 kts | 1° |
| 2026-04-25 12:43 | 3.55079 | 100.98083 | 28005 ft | 448 kts | 1° |
| 2026-04-25 12:43 | 3.61347 | 100.98101 | 28753 ft | 449 kts | 0° |
| 2026-04-25 12:44 | 3.64445 | 100.97909 | 29045 ft | 452 kts | 354° |
| 2026-04-25 12:44 | 3.67585 | 100.97374 | 29357 ft | 455 kts | 348° |
| 2026-04-25 12:44 | 3.73612 | 100.95324 | 29829 ft | 458 kts | 337° |
| 2026-04-25 12:45 | 3.76529 | 100.94036 | 29831 ft | 458 kts | 336° |
| 2026-04-25 12:45 | 3.85270 | 100.90099 | 29834 ft | 458 kts | 336° |
| 2026-04-25 12:46 | 3.91082 | 100.87500 | 29836 ft | 458 kts | 336° |
| 2026-04-25 12:46 | 3.96933 | 100.84892 | 29834 ft | 458 kts | 336° |
| 2026-04-25 12:47 | 4.02748 | 100.82301 | 29837 ft | 458 kts | 336° |
| 2026-04-25 12:47 | 4.08605 | 100.79689 | 29834 ft | 458 kts | 336° |
| 2026-04-25 12:48 | 4.14421 | 100.77097 | 29836 ft | 458 kts | 336° |
| 2026-04-25 12:48 | 4.20231 | 100.74505 | 29837 ft | 458 kts | 336° |
| 2026-04-25 12:49 | 4.26075 | 100.71884 | 29837 ft | 458 kts | 336° |
| 2026-04-25 12:49 | 4.31919 | 100.69260 | 29839 ft | 458 kts | 336° |
| 2026-04-25 12:50 | 4.37725 | 100.66650 | 29840 ft | 458 kts | 336° |
| 2026-04-25 12:50 | 4.43545 | 100.64037 | 29843 ft | 457 kts | 336° |
| 2026-04-25 12:51 | 4.49403 | 100.61515 | 29842 ft | 458 kts | 338° |
| 2026-04-25 12:51 | 4.55278 | 100.59023 | 29843 ft | 458 kts | 337° |
| 2026-04-25 12:52 | 4.61159 | 100.56517 | 29844 ft | 458 kts | 337° |
| 2026-04-25 12:52 | 4.67044 | 100.54000 | 29669 ft | 462 kts | 337° |
| 2026-04-25 12:53 | 4.69993 | 100.52738 | 29420 ft | 462 kts | 338° |
| 2026-04-25 12:53 | 4.72951 | 100.51473 | 29170 ft | 460 kts | 337° |
| 2026-04-25 12:53 | 4.75894 | 100.50214 | 28922 ft | 458 kts | 338° |
| 2026-04-25 12:53 | 4.78839 | 100.48953 | 28651 ft | 457 kts | 338° |
| 2026-04-25 12:54 | 4.81766 | 100.47701 | 28198 ft | 454 kts | 338° |
| 2026-04-25 12:54 | 4.84661 | 100.46418 | 27598 ft | 452 kts | 336° |
| 2026-04-25 12:54 | 4.87502 | 100.45091 | 27047 ft | 447 kts | 336° |
| 2026-04-25 12:54 | 4.90292 | 100.43772 | 26607 ft | 440 kts | 335° |
| 2026-04-25 12:55 | 4.93052 | 100.42467 | 26135 ft | 436 kts | 336° |
| 2026-04-25 12:55 | 4.94882 | 100.41604 | 25812 ft | 433 kts | 336° |
| 2026-04-25 12:55 | 4.98505 | 100.39899 | 25145 ft | 428 kts | 336° |
| 2026-04-25 12:55 | 5.01189 | 100.38639 | 24647 ft | 425 kts | 336° |
| 2026-04-25 12:56 | 5.03872 | 100.37380 | 24150 ft | 423 kts | 336° |
| 2026-04-25 12:56 | 5.06529 | 100.36134 | 23653 ft | 420 kts | 336° |
| 2026-04-25 12:56 | 5.09178 | 100.34892 | 23161 ft | 417 kts | 336° |
| 2026-04-25 12:56 | 5.11817 | 100.33656 | 22664 ft | 415 kts | 336° |
| 2026-04-25 12:57 | 5.14441 | 100.32425 | 22166 ft | 412 kts | 336° |
| 2026-04-25 12:57 | 5.17014 | 100.31218 | 21683 ft | 410 kts | 337° |
| 2026-04-25 12:57 | 5.19606 | 100.30001 | 21188 ft | 408 kts | 337° |
| 2026-04-25 12:57 | 5.22215 | 100.28778 | 20684 ft | 406 kts | 337° |
| 2026-04-25 12:58 | 5.24768 | 100.27580 | 20187 ft | 404 kts | 337° |
| 2026-04-25 12:58 | 5.27302 | 100.26392 | 19686 ft | 401 kts | 337° |
| 2026-04-25 12:58 | 5.29833 | 100.25197 | 19186 ft | 399 kts | 337° |
| 2026-04-25 12:58 | 5.32344 | 100.23997 | 18687 ft | 397 kts | 336° |
| 2026-04-25 12:59 | 5.34840 | 100.22801 | 18185 ft | 395 kts | 337° |
| 2026-04-25 12:59 | 5.37321 | 100.21613 | 17686 ft | 393 kts | 337° |
| 2026-04-25 12:59 | 5.39776 | 100.20438 | 17190 ft | 390 kts | 337° |
| 2026-04-25 12:59 | 5.42205 | 100.19275 | 16697 ft | 388 kts | 337° |
| 2026-04-25 13:00 | 5.44647 | 100.18107 | 16197 ft | 386 kts | 337° |
| 2026-04-25 13:00 | 5.46280 | 100.17325 | 15862 ft | 385 kts | 336° |
| 2026-04-25 13:00 | 5.49504 | 100.15783 | 15197 ft | 382 kts | 336° |
| 2026-04-25 13:00 | 5.51898 | 100.14636 | 14699 ft | 380 kts | 336° |
| 2026-04-25 13:01 | 5.54272 | 100.13500 | 14222 ft | 378 kts | 336° |
| 2026-04-25 13:01 | 5.56625 | 100.12372 | 13734 ft | 376 kts | 336° |
| 2026-04-25 13:01 | 5.58984 | 100.11242 | 13235 ft | 374 kts | 336° |
| 2026-04-25 13:01 | 5.61337 | 100.10112 | 12747 ft | 371 kts | 336° |
| 2026-04-25 13:02 | 5.63669 | 100.08993 | 12258 ft | 369 kts | 335° |
| 2026-04-25 13:02 | 5.65992 | 100.07877 | 11772 ft | 367 kts | 336° |
| 2026-04-25 13:02 | 5.68295 | 100.06772 | 11285 ft | 364 kts | 336° |
| 2026-04-25 13:02 | 5.70582 | 100.05675 | 10800 ft | 362 kts | 336° |
| 2026-04-25 13:03 | 5.72826 | 100.04598 | 10508 ft | 352 kts | 336° |
| 2026-04-25 13:03 | 5.74998 | 100.03557 | 10351 ft | 339 kts | 336° |
| 2026-04-25 13:03 | 5.77100 | 100.02550 | 10204 ft | 326 kts | 336° |
| 2026-04-25 13:03 | 5.79127 | 100.01578 | 10062 ft | 314 kts | 336° |
| 2026-04-25 13:04 | 5.81070 | 100.00647 | 9817 ft | 307 kts | 337° |
| 2026-04-25 13:04 | 5.83007 | 99.99719 | 9523 ft | 302 kts | 337° |
| 2026-04-25 13:04 | 5.84882 | 99.98819 | 9224 ft | 297 kts | 337° |
| 2026-04-25 13:04 | 5.86746 | 99.97927 | 8927 ft | 293 kts | 336° |
| 2026-04-25 13:05 | 5.88575 | 99.97051 | 8635 ft | 288 kts | 336° |
| 2026-04-25 13:05 | 5.90372 | 99.96188 | 8350 ft | 284 kts | 336° |
| 2026-04-25 13:05 | 5.92156 | 99.95331 | 8060 ft | 279 kts | 337° |
| 2026-04-25 13:05 | 5.93902 | 99.94493 | 7775 ft | 274 kts | 336° |
| 2026-04-25 13:06 | 5.95541 | 99.93562 | 7424 ft | 267 kts | 327° |
| 2026-04-25 13:06 | 5.96962 | 99.92358 | 7049 ft | 264 kts | 317° |
| 2026-04-25 13:06 | 5.98233 | 99.91033 | 6695 ft | 260 kts | 316° |
| 2026-04-25 13:06 | 5.99460 | 99.89712 | 6349 ft | 255 kts | 315° |
| 2026-04-25 13:07 | 6.00655 | 99.88425 | 6041 ft | 249 kts | 316° |
| 2026-04-25 13:07 | 6.01839 | 99.87152 | 5732 ft | 244 kts | 316° |
| 2026-04-25 13:07 | 6.02991 | 99.85921 | 5440 ft | 242 kts | 316° |
| 2026-04-25 13:07 | 6.04142 | 99.84692 | 5191 ft | 238 kts | 316° |
| 2026-04-25 13:08 | 6.05267 | 99.83495 | 4941 ft | 234 kts | 316° |
| 2026-04-25 13:08 | 6.06373 | 99.82316 | 4645 ft | 229 kts | 316° |
| 2026-04-25 13:08 | 6.07453 | 99.81165 | 4326 ft | 224 kts | 316° |
| 2026-04-25 13:08 | 6.08502 | 99.80045 | 4040 ft | 218 kts | 316° |
| 2026-04-25 13:09 | 6.09537 | 99.78944 | 3761 ft | 211 kts | 316° |
| 2026-04-25 13:09 | 6.10518 | 99.77899 | 3522 ft | 203 kts | 317° |
| 2026-04-25 13:09 | 6.11477 | 99.76875 | 3270 ft | 197 kts | 317° |
| 2026-04-25 13:09 | 6.12406 | 99.75886 | 3175 ft | 192 kts | 317° |
| 2026-04-25 13:10 | 6.13325 | 99.74908 | 3130 ft | 192 kts | 317° |
| 2026-04-25 13:10 | 6.14238 | 99.73937 | 3094 ft | 192 kts | 317° |
| 2026-04-25 13:10 | 6.15169 | 99.72948 | 3053 ft | 192 kts | 317° |
| 2026-04-25 13:10 | 6.16081 | 99.71979 | 3016 ft | 192 kts | 317° |
| 2026-04-25 13:11 | 6.17015 | 99.70990 | 2931 ft | 192 kts | 319° |
| 2026-04-25 13:11 | 6.18034 | 99.70165 | 2823 ft | 189 kts | 329° |
| 2026-04-25 13:11 | 6.19150 | 99.69454 | 2702 ft | 189 kts | 331° |
| 2026-04-25 13:11 | 6.20285 | 99.68757 | 2500 ft | 190 kts | 332° |
| 2026-04-25 13:12 | 6.21452 | 99.68193 | 2268 ft | 181 kts | 342° |
| 2026-04-25 13:12 | 6.22627 | 99.67881 | 1997 ft | 168 kts | 353° |
| 2026-04-25 13:12 | 6.23756 | 99.67799 | 1765 ft | 156 kts | 3° |
| 2026-04-25 13:12 | 6.24462 | 99.67853 | 1629 ft | 148 kts | 9° |
| 2026-04-25 13:13 | 6.25791 | 99.68179 | 1398 ft | 148 kts | 21° |
| 2026-04-25 13:13 | 6.26735 | 99.68616 | 1216 ft | 148 kts | 30° |
| 2026-04-25 13:13 | 6.27597 | 99.69172 | 1039 ft | 148 kts | 34° |
| 2026-04-25 13:13 | 6.28444 | 99.69750 | 854 ft | 147 kts | 34° |
| 2026-04-25 13:14 | 6.29303 | 99.70339 | 665 ft | 147 kts | 35° |
| 2026-04-25 13:14 | 6.30141 | 99.70922 | 460 ft | 146 kts | 34° |
| 2026-04-25 13:14 | 6.30987 | 99.71503 | 284 ft | 146 kts | 34° |
| 2026-04-25 13:14 | 6.31823 | 99.72069 | 91 ft | 145 kts | 34° |
| 2026-04-25 13:15 | 6.32644 | 99.72634 | 18 ft | 134 kts | 34° |
| 2026-04-25 13:15 | 6.33281 | 99.73069 | 23 ft | 85 kts | 34° |
| 2026-04-25 13:15 | 6.33629 | 99.73306 | 27 ft | 37 kts | 34° |
| 2026-04-25 13:15 | 6.33748 | 99.73346 | 29 ft | 13 kts | 321° |
| 2026-04-25 13:16 | 6.33803 | 99.73268 | 30 ft | 13 kts | 304° |
| 2026-04-25 13:16 | 6.33856 | 99.73201 | 30 ft | 8 kts | 347° |
| 2026-04-25 13:16 | 6.33917 | 99.73219 | 30 ft | 10 kts | 34° |
| 2026-04-25 13:16 | 6.33977 | 99.73254 | 30 ft | 7 kts | 350° |
| 2026-04-25 13:17 | 6.34007 | 99.73216 | 30 ft | 3 kts | 303° |
| 2026-04-25 13:17 | 6.34015 | 99.73203 | 30 ft | 0 kts | 303° |